TimeMDT,TemperatureF,Dew PointF,Humidity,Sea Level PressureIn,VisibilityMPH,Wind Direction,Wind SpeedMPH,Gust SpeedMPH,PrecipitationIn,Events,Conditions,WindDirDegrees,DateUTC
12:11 AM,33.8,26.6,75,29.83,10.0,SE,12.7,-,N/A,,Clear,130,2013-03-17 06:11:00
12:53 AM,32.0,26.1,79,29.82,10.0,ESE,10.4,-,N/A,,Clear,110,2013-03-17 06:53:00
1:53 AM,30.0,26.1,85,29.82,10.0,SE,17.3,-,N/A,,Clear,140,2013-03-17 07:53:00
2:53 AM,28.9,25.0,85,29.81,10.0,SSE,17.3,-,N/A,,Clear,150,2013-03-17 08:53:00
3:53 AM,30.0,25.0,82,29.78,10.0,SSE,12.7,-,N/A,,Clear,160,2013-03-17 09:53:00
4:53 AM,30.0,24.1,79,29.76,10.0,South,15.0,-,N/A,,Clear,180,2013-03-17 10:53:00
5:53 AM,30.0,24.1,79,29.75,10.0,South,16.1,-,N/A,,Clear,170,2013-03-17 11:53:00
6:53 AM,28.9,24.1,82,29.73,10.0,South,17.3,-,N/A,,Clear,180,2013-03-17 12:53:00
7:53 AM,34.0,25.0,70,29.70,10.0,South,17.3,-,N/A,,Clear,180,2013-03-17 13:53:00
8:53 AM,37.0,26.1,65,29.68,10.0,South,15.0,-,N/A,,Clear,170,2013-03-17 14:53:00
9:53 AM,45.0,28.0,52,29.65,10.0,South,18.4,-,N/A,,Clear,180,2013-03-17 15:53:00
10:53 AM,48.0,27.0,44,29.61,10.0,South,21.9,32.2,N/A,,Clear,180,2013-03-17 16:53:00
11:53 AM,51.1,28.0,41,29.58,10.0,South,20.7,27.6,N/A,,Scattered Clouds,190,2013-03-17 17:53:00
12:53 PM,52.0,28.9,41,29.55,10.0,SSW,13.8,-,N/A,,Mostly Cloudy,210,2013-03-17 18:53:00
1:53 PM,53.1,28.9,40,29.52,10.0,SW,6.9,-,N/A,,Clear,230,2013-03-17 19:53:00
2:53 PM,57.0,27.0,32,29.49,10.0,WNW,5.8,-,N/A,,Clear,300,2013-03-17 20:53:00
3:53 PM,55.9,23.0,28,29.49,10.0,WNW,10.4,18.4,N/A,,Clear,300,2013-03-17 21:53:00
4:24 PM,51.8,26.6,38,29.52,10.0,North,18.4,24.2,N/A,,Mostly Cloudy,350,2013-03-17 22:24:00
4:53 PM,52.0,28.0,40,29.53,10.0,WNW,11.5,27.6,0.00,Rain,Light Rain,300,2013-03-17 22:53:00
5:13 PM,53.6,23.0,30,29.54,10.0,NW,24.2,33.4,N/A,,Mostly Cloudy,310,2013-03-17 23:13:00
5:53 PM,53.1,19.0,26,29.55,10.0,NW,27.6,36.8,N/A,,Clear,320,2013-03-17 23:53:00
6:53 PM,48.9,14.0,25,29.60,10.0,NW,24.2,35.7,N/A,,Clear,310,2013-03-18 00:53:00
7:53 PM,45.0,21.0,39,29.66,10.0,NNW,19.6,26.5,N/A,,Mostly Cloudy,340,2013-03-18 01:53:00
8:53 PM,41.0,8.1,26,29.73,10.0,NNW,27.6,40.3,N/A,,Mostly Cloudy,340,2013-03-18 02:53:00
9:53 PM,37.0,8.1,30,29.75,10.0,NNW,32.2,39.1,N/A,,Partly Cloudy,330,2013-03-18 03:53:00
10:53 PM,30.0,21.0,69,29.80,10.0,North,24.2,31.1,N/A,,Scattered Clouds,350,2013-03-18 04:53:00
11:53 PM,28.0,19.9,72,29.84,10.0,North,23.0,31.1,N/A,,Scattered Clouds,350,2013-03-18 05:53:00